createdAt,value
2023-02-25T00:02:02.812Z,3.37
2023-02-25T00:04:32.911Z,3.34
2023-02-25T00:07:02.360Z,3.31
2023-02-25T00:09:31.349Z,3.29
2023-02-25T00:12:00.176Z,3.26
2023-02-25T00:14:29.085Z,3.24
2023-02-25T00:16:57.762Z,3.22
2023-02-25T00:19:27.065Z,3.22
2023-02-25T00:21:57.594Z,3.22
2023-02-25T00:24:26.376Z,3.21
2023-02-25T00:26:54.852Z,3.21
2023-02-25T00:29:23.538Z,3.21
2023-02-25T00:31:52.629Z,3.20
2023-02-25T00:34:21.527Z,3.19
2023-02-25T00:36:50.765Z,3.19
2023-02-25T00:39:19.470Z,3.17
2023-02-25T00:41:48.511Z,3.17
2023-02-25T00:44:17.111Z,3.15
2023-02-25T00:46:46.232Z,3.14
2023-02-25T00:49:27.028Z,3.14
2023-02-25T00:52:01.403Z,3.14
2023-02-25T00:54:30.670Z,3.14
2023-02-25T00:56:59.173Z,3.13
2023-02-25T00:59:28.149Z,3.13
2023-02-25T01:01:58.014Z,3.14
2023-02-25T01:04:26.969Z,3.14
2023-02-25T01:06:55.760Z,3.14
2023-02-25T01:09:24.733Z,3.16
2023-02-25T01:11:54.765Z,3.16
2023-02-25T01:14:25.665Z,3.17
2023-02-25T01:16:57.648Z,3.18
2023-02-25T01:19:26.743Z,3.18
2023-02-25T01:21:57.568Z,3.18
2023-02-25T01:24:32.218Z,3.17
2023-02-25T01:27:03.071Z,3.16
2023-02-25T01:29:39.503Z,3.14
2023-02-25T01:32:12.193Z,3.14
2023-02-25T01:34:41.476Z,3.13
2023-02-25T01:37:10.375Z,3.11
2023-02-25T01:39:41.582Z,3.09
2023-02-25T01:42:17.865Z,3.08
2023-02-25T01:45:20.766Z,3.07
2023-02-25T01:48:11.492Z,3.06
2023-02-25T01:50:50.093Z,3.05
2023-02-25T01:53:24.707Z,3.03
2023-02-25T01:55:54.627Z,3.03
2023-02-25T01:58:23.347Z,3.02
2023-02-25T02:00:55.850Z,3.02
2023-02-25T02:03:27.994Z,3.04
2023-02-25T02:06:10.082Z,3.05
2023-02-25T02:08:42.657Z,3.06
2023-02-25T02:11:11.236Z,3.06
2023-02-25T02:13:43.867Z,3.07
2023-02-25T02:16:49.543Z,3.06
2023-02-25T02:19:39.835Z,3.05
2023-02-25T02:22:29.639Z,3.04
2023-02-25T02:25:35.391Z,3.04
2023-02-25T02:28:27.612Z,3.05
2023-02-25T02:31:08.733Z,3.07
2023-02-25T02:33:45.030Z,3.10
2023-02-25T02:36:50.913Z,3.12
2023-02-25T02:40:14.903Z,3.14
2023-02-25T02:42:55.577Z,3.17
2023-02-25T02:45:50.534Z,3.20
2023-02-25T02:48:25.105Z,3.22
2023-02-25T02:50:58.889Z,3.24
2023-02-25T02:53:47.852Z,3.26
2023-02-25T02:56:17.876Z,3.29
2023-02-25T02:59:08.338Z,3.31
2023-02-25T03:01:44.928Z,3.32
2023-02-25T03:04:18.823Z,3.33
2023-02-25T03:06:55.556Z,3.34
2023-02-25T03:09:34.729Z,3.34
2023-02-25T03:12:03.838Z,3.35
2023-02-25T03:14:34.458Z,3.36
2023-02-25T03:17:14.302Z,3.37
2023-02-25T03:19:47.805Z,3.36
2023-02-25T03:22:39.663Z,3.34
2023-02-25T03:25:29.420Z,3.30
2023-02-25T03:28:04.551Z,3.25
2023-02-25T03:31:08.428Z,3.19
2023-02-25T03:33:48.886Z,3.12
2023-02-25T03:36:29.260Z,3.07
2023-02-25T03:39:07.569Z,3.02
2023-02-25T03:41:40.035Z,2.95
2023-02-25T03:44:16.281Z,2.89
2023-02-25T03:46:46.776Z,2.84
2023-02-25T03:49:23.747Z,2.79
2023-02-25T03:51:54.302Z,2.74
2023-02-25T03:54:23.373Z,2.69
2023-02-25T03:56:52.575Z,2.63
2023-02-25T03:59:24.017Z,2.58
2023-02-25T04:01:53.328Z,2.52
2023-02-25T04:04:22.024Z,2.48
2023-02-25T04:06:50.890Z,2.44
2023-02-25T04:09:19.993Z,2.42
2023-02-25T04:11:49.608Z,2.40
2023-02-25T04:14:18.698Z,2.37
2023-02-25T04:16:47.982Z,2.36
2023-02-25T04:19:16.567Z,2.33
2023-02-25T04:21:45.266Z,2.32
2023-02-25T04:24:14.346Z,2.33
2023-02-25T04:26:43.007Z,2.35
2023-02-25T04:29:11.827Z,2.39
2023-02-25T04:31:40.775Z,2.43
2023-02-25T04:34:09.628Z,2.47
2023-02-25T04:36:38.391Z,2.51
2023-02-25T04:39:07.067Z,2.54
2023-02-25T04:41:36.498Z,2.55
2023-02-25T04:44:06.510Z,2.55
2023-02-25T04:46:37.982Z,2.53
2023-02-25T04:49:10.008Z,2.51
2023-02-25T04:51:39.619Z,2.49
2023-02-25T04:54:09.058Z,2.47
2023-02-25T04:56:39.149Z,2.46
2023-02-25T04:59:08.023Z,2.44
2023-02-25T05:01:36.490Z,2.45
2023-02-25T05:04:05.268Z,2.44
2023-02-25T05:06:35.008Z,2.44
2023-02-25T05:09:04.330Z,2.47
2023-02-25T05:11:33.611Z,2.50
2023-02-25T05:14:02.080Z,2.53
2023-02-25T05:16:30.751Z,2.56
2023-02-25T05:18:59.770Z,2.59
2023-02-25T05:21:29.715Z,2.62
2023-02-25T05:23:58.273Z,2.65
2023-02-25T05:26:26.943Z,2.69
2023-02-25T05:28:57.605Z,2.73
2023-02-25T05:31:26.826Z,2.78
2023-02-25T05:33:55.469Z,2.82
2023-02-25T05:36:27.547Z,2.86
2023-02-25T05:39:03.230Z,2.91
2023-02-25T05:41:31.871Z,2.93
2023-02-25T05:44:00.438Z,2.97
2023-02-25T05:46:29.074Z,2.99
2023-02-25T05:48:57.528Z,3.01
2023-02-25T05:51:26.412Z,3.02
2023-02-25T05:53:55.969Z,3.01
2023-02-25T05:56:26.058Z,3.02
2023-02-25T05:58:55.823Z,3.03
2023-02-25T06:01:29.028Z,3.03
2023-02-25T06:03:59.145Z,3.02
2023-02-25T06:06:30.184Z,3.01
2023-02-25T06:08:59.308Z,3.01
2023-02-25T06:11:30.000Z,3.02
2023-02-25T06:14:00.234Z,3.01
2023-02-25T06:16:32.865Z,3.01
2023-02-25T06:19:02.713Z,3.03
2023-02-25T06:21:32.029Z,3.04
2023-02-25T06:24:02.861Z,3.05
2023-02-25T06:26:32.263Z,3.07
2023-02-25T06:29:00.948Z,3.10
2023-02-25T06:31:29.545Z,3.13
2023-02-25T06:33:58.229Z,3.15
2023-02-25T06:36:27.153Z,3.18
2023-02-25T06:38:55.991Z,3.19
2023-02-25T06:41:25.083Z,3.20
2023-02-25T06:43:53.789Z,3.20
2023-02-25T06:46:27.292Z,3.20
2023-02-25T06:48:56.066Z,3.20
2023-02-25T06:51:26.187Z,3.19
2023-02-25T06:53:54.665Z,3.19
2023-02-25T06:56:24.118Z,3.19
2023-02-25T06:58:54.188Z,3.19
2023-02-25T07:01:22.817Z,3.14
2023-02-25T07:03:51.770Z,3.06
2023-02-25T07:06:20.999Z,3.00
2023-02-25T07:08:49.536Z,2.97
2023-02-25T07:11:18.335Z,2.95
2023-02-25T07:13:48.116Z,2.94
2023-02-25T07:16:17.597Z,2.95
2023-02-25T07:18:47.244Z,2.96
2023-02-25T07:21:16.550Z,2.97
2023-02-25T07:23:46.935Z,2.97
2023-02-25T07:26:17.528Z,2.99
2023-02-25T07:28:46.616Z,3.00
2023-02-25T07:31:19.049Z,3.03
2023-02-25T07:33:48.973Z,3.07
2023-02-25T07:36:18.297Z,3.12
2023-02-25T07:38:49.028Z,3.14
2023-02-25T07:41:19.445Z,3.18
2023-02-25T07:43:48.354Z,3.19
2023-02-25T07:46:17.454Z,3.19
2023-02-25T07:48:46.209Z,3.19
2023-02-25T07:51:18.899Z,3.19
2023-02-25T07:53:50.056Z,3.19
2023-02-25T07:56:20.379Z,3.21
2023-02-25T07:58:49.282Z,3.23
2023-02-25T08:01:28.692Z,3.25
2023-02-25T08:03:59.519Z,3.27
2023-02-25T08:06:28.729Z,3.30
2023-02-25T08:08:57.818Z,3.33
2023-02-25T08:11:28.245Z,3.37
2023-02-25T08:13:56.931Z,3.37
2023-02-25T08:16:25.763Z,3.40
2023-02-25T08:18:55.231Z,3.39
2023-02-25T08:21:24.294Z,3.40
2023-02-25T08:23:53.980Z,3.40
2023-02-25T08:26:24.101Z,3.39
2023-02-25T08:28:53.053Z,3.37
2023-02-25T08:31:23.178Z,3.34
2023-02-25T08:33:53.214Z,3.31
2023-02-25T08:36:24.974Z,3.28
2023-02-25T08:38:54.238Z,3.25
2023-02-25T08:41:23.970Z,3.25
2023-02-25T08:43:55.240Z,3.25
2023-02-25T08:46:27.173Z,3.26
2023-02-25T08:48:56.481Z,3.26
2023-02-25T08:51:34.583Z,3.26
2023-02-25T08:54:09.249Z,3.24
2023-02-25T08:56:40.159Z,3.23
2023-02-25T08:59:10.741Z,3.19
2023-02-25T09:01:45.363Z,3.14
2023-02-25T09:04:17.420Z,3.09
2023-02-25T09:06:49.525Z,3.07
2023-02-25T09:09:20.154Z,3.04
2023-02-25T09:11:49.612Z,2.99
2023-02-25T09:14:18.850Z,2.96
2023-02-25T09:16:47.940Z,2.93
2023-02-25T09:19:18.717Z,2.92
2023-02-25T09:21:48.686Z,2.92
2023-02-25T09:24:18.284Z,2.90
2023-02-25T09:26:48.299Z,2.89
2023-02-25T09:29:17.368Z,2.87
2023-02-25T09:31:47.056Z,2.87
2023-02-25T09:34:16.006Z,2.88
2023-02-25T09:36:44.886Z,2.89
2023-02-25T09:39:13.973Z,2.91
2023-02-25T09:41:44.912Z,2.95
2023-02-25T09:44:17.895Z,2.99
2023-02-25T09:47:08.912Z,3.05
2023-02-25T09:49:45.137Z,3.17
2023-02-25T09:52:35.483Z,3.26
2023-02-25T09:55:16.569Z,3.31
2023-02-25T09:57:48.251Z,3.29
2023-02-25T10:00:18.870Z,3.23
2023-02-25T10:03:28.311Z,3.16
2023-02-25T10:06:21.031Z,3.13
2023-02-25T10:09:19.025Z,3.14
2023-02-25T10:12:21.452Z,3.10
2023-02-25T10:15:08.938Z,3.05
2023-02-25T10:17:51.740Z,3.05
2023-02-25T10:20:39.677Z,3.10
2023-02-25T10:23:23.095Z,3.14
2023-02-25T10:26:20.133Z,3.18
2023-02-25T10:28:53.555Z,3.24
2023-02-25T10:31:26.291Z,3.30
2023-02-25T10:33:57.051Z,3.36
2023-02-25T10:36:28.522Z,3.45
2023-02-25T10:38:59.640Z,3.59
2023-02-25T10:41:31.010Z,3.69
2023-02-25T10:43:59.664Z,3.77
2023-02-25T10:46:35.352Z,3.85
2023-02-25T10:49:38.643Z,3.88
2023-02-25T10:52:16.022Z,3.88
2023-02-25T10:54:53.702Z,3.88
2023-02-25T10:57:29.146Z,3.76
2023-02-25T11:00:03.057Z,3.62
2023-02-25T11:02:34.442Z,3.51
2023-02-25T11:05:03.930Z,3.43
2023-02-25T11:07:36.815Z,3.42
2023-02-25T11:10:17.383Z,3.38
2023-02-25T11:12:53.731Z,3.33
2023-02-25T11:15:45.391Z,3.28
2023-02-25T11:18:21.882Z,3.23
2023-02-25T11:20:55.346Z,3.15
2023-02-25T11:23:28.497Z,3.04
2023-02-25T11:25:57.917Z,2.92
2023-02-25T11:28:45.674Z,2.72
2023-02-25T11:31:20.763Z,2.33
2023-02-25T11:34:03.897Z,2.03
2023-02-25T11:36:35.656Z,1.89
2023-02-25T11:39:25.743Z,1.88
2023-02-25T11:41:57.142Z,1.94
2023-02-25T11:44:32.125Z,2.01
2023-02-25T11:47:16.695Z,2.09
2023-02-25T11:50:13.936Z,2.19
2023-02-25T11:52:54.831Z,2.30
2023-02-25T11:55:44.175Z,2.43
2023-02-25T11:58:31.708Z,2.55
2023-02-25T12:01:05.328Z,2.63
2023-02-25T12:03:46.373Z,2.67
2023-02-25T12:06:34.000Z,2.69
2023-02-25T12:09:14.890Z,2.70
2023-02-25T12:11:52.277Z,2.73
2023-02-25T12:14:57.007Z,2.73
2023-02-25T12:17:28.796Z,2.76
2023-02-25T12:20:36.669Z,2.78
2023-02-25T12:24:01.493Z,2.79
2023-02-25T12:26:51.679Z,2.72
2023-02-25T12:29:59.449Z,2.67
2023-02-25T12:32:54.269Z,2.61
2023-02-25T12:36:04.200Z,2.56
2023-02-25T12:38:59.508Z,2.49
2023-02-25T12:41:47.964Z,2.45
2023-02-25T12:44:36.310Z,2.41
2023-02-25T12:47:25.943Z,2.34
2023-02-25T12:50:07.803Z,2.27
2023-02-25T12:53:02.053Z,2.22
2023-02-25T12:56:08.649Z,2.18
2023-02-25T12:58:40.612Z,2.16
2023-02-25T13:01:28.693Z,2.11
2023-02-25T13:04:42.372Z,2.05
2023-02-25T13:07:17.822Z,2.01
2023-02-25T13:10:00.177Z,2.00
2023-02-25T13:12:48.981Z,2.01
2023-02-25T13:15:23.523Z,2.04
2023-02-25T13:18:04.365Z,2.07
2023-02-25T13:21:02.733Z,2.04
2023-02-25T13:23:35.025Z,2.02
2023-02-25T13:26:19.582Z,2.02
2023-02-25T13:29:16.840Z,1.98
2023-02-25T13:32:07.299Z,1.97
2023-02-25T13:35:07.378Z,1.95
2023-02-25T13:37:57.648Z,1.96
2023-02-25T13:40:56.049Z,2.00
2023-02-25T13:43:34.875Z,2.07
2023-02-25T13:46:28.973Z,2.12
2023-02-25T13:48:59.256Z,2.16
2023-02-25T13:52:07.793Z,2.17
2023-02-25T13:55:07.544Z,2.17
2023-02-25T13:57:55.454Z,2.19
2023-02-25T14:00:50.731Z,2.21
2023-02-25T14:03:54.282Z,2.23
2023-02-25T14:06:41.890Z,2.21
2023-02-25T14:09:48.442Z,2.18
2023-02-25T14:12:29.637Z,2.14
2023-02-25T14:15:03.830Z,2.10
2023-02-25T14:17:55.148Z,2.08
2023-02-25T14:20:44.579Z,2.08
2023-02-25T14:23:23.136Z,2.09
2023-02-25T14:26:21.030Z,2.12
2023-02-25T14:29:07.353Z,2.13
2023-02-25T14:31:43.326Z,2.15
2023-02-25T14:34:57.310Z,2.16
2023-02-25T14:37:35.529Z,2.17
2023-02-25T14:40:21.429Z,2.16
2023-02-25T14:43:20.008Z,2.15
2023-02-25T14:46:15.760Z,2.14
2023-02-25T14:49:00.602Z,2.12
2023-02-25T14:52:32.747Z,2.11
2023-02-25T14:55:11.688Z,2.08
2023-02-25T14:58:18.466Z,2.08
2023-02-25T15:01:08.449Z,2.08
2023-02-25T15:03:47.768Z,2.09
2023-02-25T15:06:27.506Z,2.10
2023-02-25T15:09:21.596Z,2.07
2023-02-25T15:12:22.324Z,2.04
2023-02-25T15:14:51.847Z,1.97
2023-02-25T15:17:37.647Z,1.92
2023-02-25T15:20:35.114Z,1.86
2023-02-25T15:23:20.147Z,1.80
2023-02-25T15:26:20.407Z,1.73
2023-02-25T15:28:51.721Z,1.66
2023-02-25T15:31:29.095Z,1.60
2023-02-25T15:34:24.134Z,1.57
2023-02-25T15:37:21.918Z,1.54
2023-02-25T15:39:59.480Z,1.51
2023-02-25T15:42:52.266Z,1.49
2023-02-25T15:45:29.411Z,1.46
2023-02-25T15:48:25.887Z,1.46
2023-02-25T15:50:57.652Z,1.45
2023-02-25T15:53:27.726Z,1.42
2023-02-25T15:56:08.831Z,1.38
2023-02-25T15:59:04.598Z,1.33
2023-02-25T16:01:43.668Z,1.30
2023-02-25T16:04:42.772Z,1.28
2023-02-25T16:07:17.229Z,1.26
2023-02-25T16:10:24.572Z,1.24
2023-02-25T16:12:58.027Z,1.20
2023-02-25T16:15:40.971Z,1.19
2023-02-25T16:18:26.298Z,1.17
2023-02-25T16:21:02.668Z,1.15
2023-02-25T16:23:35.906Z,1.13
2023-02-25T16:26:13.524Z,1.11
2023-02-25T16:28:46.120Z,1.08
2023-02-25T16:31:24.985Z,1.04
2023-02-25T16:34:01.876Z,1.00
2023-02-25T16:36:40.499Z,0.97
2023-02-25T16:39:19.116Z,0.95
2023-02-25T16:41:52.517Z,0.92
2023-02-25T16:44:38.165Z,0.88
2023-02-25T16:47:26.308Z,0.87
2023-02-25T16:49:58.204Z,0.84
2023-02-25T16:52:33.082Z,0.82
2023-02-25T16:55:06.470Z,0.81
2023-02-25T16:57:39.654Z,0.79
2023-02-25T17:00:23.866Z,0.78
2023-02-25T17:03:01.447Z,0.76
2023-02-25T17:05:33.479Z,0.75
2023-02-25T17:08:14.187Z,0.74
2023-02-25T17:10:57.495Z,0.74
2023-02-25T17:13:39.830Z,0.72
2023-02-25T17:16:21.390Z,0.71
2023-02-25T17:18:55.189Z,0.69
2023-02-25T17:21:37.525Z,0.68
2023-02-25T17:24:13.045Z,0.66
2023-02-25T17:26:45.268Z,0.65
2023-02-25T17:29:17.455Z,0.64
2023-02-25T17:31:53.081Z,0.62
2023-02-25T17:34:34.260Z,0.61
2023-02-25T17:37:10.028Z,0.61
2023-02-25T17:39:42.171Z,0.59
2023-02-25T17:42:32.104Z,0.59
2023-02-25T17:45:05.442Z,0.56
2023-02-25T17:47:38.979Z,0.55
2023-02-25T17:51:09.186Z,0.53
2023-02-25T17:53:47.321Z,0.51
2023-02-25T17:56:25.524Z,0.51
2023-02-25T17:59:08.454Z,0.51
2023-02-25T18:02:00.521Z,0.50
2023-02-25T18:04:44.050Z,0.50
2023-02-25T18:07:45.413Z,0.51
2023-02-25T18:10:33.920Z,0.51
2023-02-25T18:13:07.882Z,0.52
2023-02-25T18:15:41.183Z,0.52
2023-02-25T18:18:23.142Z,0.53
2023-02-25T18:20:58.754Z,0.54
2023-02-25T18:23:33.332Z,0.54
2023-02-25T18:26:20.757Z,0.54
2023-02-25T18:29:03.155Z,0.53
2023-02-25T18:31:35.769Z,0.53
2023-02-25T18:34:06.240Z,0.53
2023-02-25T18:36:40.887Z,0.52
2023-02-25T18:39:14.006Z,0.53
2023-02-25T18:41:48.768Z,0.51
2023-02-25T18:44:25.082Z,0.51
2023-02-25T18:46:57.916Z,0.51
2023-02-25T18:49:29.583Z,0.50
2023-02-25T18:52:01.165Z,0.49
2023-02-25T18:54:32.611Z,0.48
2023-02-25T18:57:22.924Z,0.47
2023-02-25T18:59:54.888Z,0.47
2023-02-25T19:02:37.765Z,0.46
2023-02-25T19:05:08.196Z,0.45
2023-02-25T19:07:40.208Z,0.45
2023-02-25T19:10:20.309Z,0.44
2023-02-25T19:12:55.992Z,0.44
2023-02-25T19:15:27.232Z,0.44
2023-02-25T19:17:58.020Z,0.44
2023-02-25T19:20:28.050Z,0.44
2023-02-25T19:22:58.862Z,0.43
2023-02-25T19:25:52.688Z,0.44
2023-02-25T19:28:24.898Z,0.44
2023-02-25T19:30:58.370Z,0.42
2023-02-25T19:33:39.266Z,0.43
2023-02-25T19:36:19.954Z,0.42
2023-02-25T19:38:55.032Z,0.43
2023-02-25T19:41:27.962Z,0.43
2023-02-25T19:43:59.050Z,0.42
2023-02-25T19:46:31.443Z,0.43
2023-02-25T19:49:06.839Z,0.43
2023-02-25T19:51:37.184Z,0.43
2023-02-25T19:54:12.500Z,0.43
2023-02-25T19:56:44.596Z,0.43
2023-02-25T19:59:17.308Z,0.42
2023-02-25T20:05:00.816Z,0.42
2023-02-25T20:07:32.864Z,0.42
2023-02-25T20:10:04.763Z,0.43
2023-02-25T20:12:46.952Z,0.43
2023-02-25T20:15:22.785Z,0.42
2023-02-25T20:17:56.801Z,0.41
2023-02-25T20:20:28.125Z,0.41
2023-02-25T20:22:58.437Z,0.40
2023-02-25T20:25:29.969Z,0.40
2023-02-25T20:28:00.006Z,0.41
2023-02-25T20:30:32.498Z,0.41
2023-02-25T20:33:04.834Z,0.41
2023-02-25T20:35:37.190Z,0.41
2023-02-25T20:38:12.093Z,0.40
2023-02-25T20:40:44.797Z,0.40
2023-02-25T20:43:18.221Z,0.38
2023-02-25T20:45:49.499Z,0.38
2023-02-25T20:48:39.287Z,0.37
2023-02-25T20:51:12.182Z,0.36
2023-02-25T20:53:45.897Z,0.35
2023-02-25T20:56:26.219Z,0.34
2023-02-25T20:58:58.727Z,0.33
2023-02-25T21:01:29.056Z,0.32
2023-02-25T21:04:00.467Z,0.32
2023-02-25T21:06:32.408Z,0.31
2023-02-25T21:09:02.886Z,0.31
2023-02-25T21:11:33.301Z,0.31
2023-02-25T21:14:03.300Z,0.30
2023-02-25T21:16:35.256Z,0.30
2023-02-25T21:19:07.854Z,0.29
2023-02-25T21:21:38.550Z,0.28
2023-02-25T21:24:10.951Z,0.28
2023-02-25T21:26:42.967Z,0.27
2023-02-25T21:29:16.357Z,0.26
2023-02-25T21:31:46.336Z,0.25
2023-02-25T21:34:16.299Z,0.24
2023-02-25T21:36:47.048Z,0.23
2023-02-25T21:39:16.726Z,0.22
2023-02-25T21:41:47.231Z,0.21
2023-02-25T21:44:16.747Z,0.21
2023-02-25T21:46:46.874Z,0.20
2023-02-25T21:49:16.774Z,0.19
2023-02-25T21:51:46.287Z,0.18
2023-02-25T21:54:15.483Z,0.18
2023-02-25T21:56:46.434Z,0.18
2023-02-25T21:59:16.631Z,0.17
2023-02-25T22:01:45.674Z,0.15
2023-02-25T22:04:14.878Z,0.12
2023-02-25T22:06:45.774Z,0.10
2023-02-25T22:09:16.721Z,0.06
2023-02-25T22:11:45.924Z,0.03
2023-02-25T22:14:15.106Z,0.00
2023-02-25T22:16:44.084Z,-0.01
2023-02-25T22:19:13.392Z,-0.02
2023-02-25T22:21:42.685Z,-0.04
2023-02-25T22:24:12.907Z,-0.04
2023-02-25T22:26:41.492Z,-0.05
2023-02-25T22:29:10.719Z,-0.05
2023-02-25T22:31:39.657Z,-0.06
2023-02-25T22:34:08.807Z,-0.06
2023-02-25T22:36:37.273Z,-0.07
2023-02-25T22:39:08.768Z,-0.09
2023-02-25T22:41:38.797Z,-0.10
2023-02-25T22:44:07.819Z,-0.12
2023-02-25T22:46:39.332Z,-0.13
2023-02-25T22:49:09.344Z,-0.15
2023-02-25T22:51:43.859Z,-0.16
2023-02-25T22:54:15.047Z,-0.18
2023-02-25T22:56:44.667Z,-0.18
2023-02-25T22:59:15.118Z,-0.20
2023-02-25T23:01:44.533Z,-0.21
2023-02-25T23:04:13.795Z,-0.22
2023-02-25T23:06:44.738Z,-0.23
2023-02-25T23:09:15.199Z,-0.24
2023-02-25T23:11:45.497Z,-0.25
2023-02-25T23:14:14.674Z,-0.26
2023-02-25T23:16:45.122Z,-0.27
2023-02-25T23:19:17.332Z,-0.29
2023-02-25T23:21:46.491Z,-0.31
2023-02-25T23:24:19.253Z,-0.32
2023-02-25T23:26:50.943Z,-0.33
2023-02-25T23:29:20.241Z,-0.34
2023-02-25T23:31:49.384Z,-0.34
2023-02-25T23:34:22.182Z,-0.34
2023-02-25T23:36:55.731Z,-0.35
2023-02-25T23:39:25.014Z,-0.35
2023-02-25T23:41:54.179Z,-0.36
2023-02-25T23:44:23.425Z,-0.38
2023-02-25T23:46:52.692Z,-0.38
2023-02-25T23:49:21.257Z,-0.38
2023-02-25T23:51:50.155Z,-0.39
2023-02-25T23:54:20.481Z,-0.39
2023-02-25T23:56:50.377Z,-0.39
2023-02-25T23:59:19.396Z,-0.41
